createdAt,value
2022-11-24T00:01:20.251Z,72.04
2022-11-24T00:03:54.066Z,71.90
2022-11-24T00:06:21.667Z,71.95
2022-11-24T00:08:49.361Z,71.82
2022-11-24T00:11:25.980Z,71.74
2022-11-24T00:13:54.455Z,71.67
2022-11-24T00:16:25.761Z,71.67
2022-11-24T00:18:55.613Z,71.82
2022-11-24T00:21:24.697Z,71.77
2022-11-24T00:23:53.135Z,71.90
2022-11-24T00:26:23.569Z,71.77
2022-11-24T00:28:53.641Z,71.87
2022-11-24T00:31:29.785Z,71.69
2022-11-24T00:34:03.962Z,71.71
2022-11-24T00:36:33.873Z,71.80
2022-11-24T00:39:04.418Z,71.74
2022-11-24T00:41:32.177Z,71.80
2022-11-24T00:44:00.676Z,71.68
2022-11-24T00:46:28.986Z,71.73
2022-11-24T00:48:57.347Z,71.79
2022-11-24T00:51:35.821Z,71.61
2022-11-24T00:54:03.684Z,71.72
2022-11-24T00:56:31.350Z,71.74
2022-11-24T00:58:59.288Z,71.75
2022-11-24T01:01:30.255Z,71.84
2022-11-24T01:04:01.301Z,72.01
2022-11-24T01:06:29.978Z,71.80
2022-11-24T01:08:58.174Z,71.70
2022-11-24T01:11:28.757Z,71.70
2022-11-24T01:13:58.796Z,71.72
2022-11-24T01:16:28.527Z,71.87
2022-11-24T01:18:56.994Z,71.76
2022-11-24T01:21:24.701Z,71.87
2022-11-24T01:23:52.301Z,71.62
2022-11-24T01:26:22.236Z,71.68
2022-11-24T01:28:57.971Z,71.80
2022-11-24T01:31:26.390Z,71.76
2022-11-24T01:33:54.356Z,71.94
2022-11-24T01:36:22.979Z,71.86
2022-11-24T01:38:51.366Z,71.83
2022-11-24T01:41:18.897Z,71.70
2022-11-24T01:43:47.839Z,71.77
2022-11-24T01:46:28.264Z,71.59
2022-11-24T01:49:12.002Z,71.66
2022-11-24T01:51:46.425Z,71.64
2022-11-24T01:54:25.163Z,71.63
2022-11-24T01:56:57.005Z,71.65
2022-11-24T01:59:25.968Z,71.62
2022-11-24T02:01:56.122Z,71.69
2022-11-24T02:04:29.775Z,71.75
2022-11-24T02:07:01.697Z,71.75
2022-11-24T02:09:49.500Z,71.78
2022-11-24T02:12:17.147Z,71.85
2022-11-24T02:14:45.684Z,71.64
2022-11-24T02:17:13.354Z,71.67
2022-11-24T02:19:40.838Z,71.51
2022-11-24T02:22:21.752Z,71.70
2022-11-24T02:25:02.891Z,71.60
2022-11-24T02:27:30.792Z,71.68
2022-11-24T02:29:59.123Z,71.68
2022-11-24T02:32:28.279Z,71.66
2022-11-24T02:35:05.531Z,71.56
2022-11-24T02:37:33.148Z,71.68
2022-11-24T02:40:00.768Z,71.62
2022-11-24T02:42:35.230Z,71.68
2022-11-24T02:45:03.550Z,71.54
2022-11-24T02:47:31.125Z,71.51
2022-11-24T02:49:58.981Z,71.55
2022-11-24T02:52:26.531Z,71.67
2022-11-24T02:54:54.152Z,71.55
2022-11-24T02:57:23.288Z,71.73
2022-11-24T02:59:50.853Z,71.62
2022-11-24T03:02:18.431Z,71.73
2022-11-24T03:04:46.078Z,71.79
2022-11-24T03:07:14.697Z,71.78
2022-11-24T03:09:42.633Z,71.82
2022-11-24T03:12:10.204Z,71.90
2022-11-24T03:14:37.729Z,71.85
2022-11-24T03:17:05.439Z,71.88
2022-11-24T03:19:33.173Z,71.89
2022-11-24T03:22:00.730Z,71.73
2022-11-24T03:24:28.337Z,71.89
2022-11-24T03:26:55.951Z,71.78
2022-11-24T03:29:23.573Z,71.78
2022-11-24T03:31:51.151Z,71.70
2022-11-24T03:34:18.724Z,71.78
2022-11-24T03:36:46.326Z,71.67
2022-11-24T03:39:13.877Z,71.73
2022-11-24T03:41:41.431Z,71.55
2022-11-24T03:44:09.258Z,71.61
2022-11-24T03:46:37.003Z,71.83
2022-11-24T03:49:04.683Z,71.72
2022-11-24T03:51:32.234Z,71.62
2022-11-24T03:53:59.804Z,71.56
2022-11-24T03:56:28.063Z,71.60
2022-11-24T03:58:56.233Z,71.45
2022-11-24T04:01:23.973Z,71.68
2022-11-24T04:03:51.665Z,71.57
2022-11-24T04:06:19.257Z,71.64
2022-11-24T04:08:46.820Z,71.81
2022-11-24T04:11:34.358Z,71.65
2022-11-24T04:14:01.897Z,71.74
2022-11-24T04:16:29.500Z,71.81
2022-11-24T04:18:57.437Z,71.66
2022-11-24T04:21:24.974Z,71.76
2022-11-24T04:23:52.628Z,71.62
2022-11-24T04:26:20.156Z,71.56
2022-11-24T04:28:47.724Z,71.75
2022-11-24T04:31:15.366Z,71.83
2022-11-24T04:33:43.134Z,71.76
2022-11-24T04:36:11.247Z,71.70
2022-11-24T04:39:23.588Z,71.71
2022-11-24T04:41:26.380Z,71.60
2022-11-24T04:43:53.932Z,71.72
2022-11-24T04:46:21.558Z,71.83
2022-11-24T04:48:49.411Z,71.89
2022-11-24T04:51:17.030Z,71.90
2022-11-24T04:53:44.643Z,71.83
2022-11-24T04:56:12.163Z,71.93
2022-11-24T04:58:39.758Z,71.80
2022-11-24T05:01:08.502Z,71.84
2022-11-24T05:03:36.926Z,71.87
2022-11-24T05:06:04.855Z,71.82
2022-11-24T05:08:32.455Z,71.77
2022-11-24T05:11:07.535Z,71.84
2022-11-24T05:13:35.056Z,71.90
2022-11-24T05:16:02.801Z,71.71
2022-11-24T05:18:30.483Z,71.77
2022-11-24T05:20:59.056Z,71.87
2022-11-24T05:23:27.115Z,71.88
2022-11-24T05:25:54.813Z,71.89
2022-11-24T05:28:22.389Z,71.82
2022-11-24T05:30:49.990Z,71.83
2022-11-24T05:33:18.904Z,71.84
2022-11-24T05:35:48.196Z,71.86
2022-11-24T05:38:17.298Z,71.79
2022-11-24T05:40:44.828Z,71.65
2022-11-24T05:43:16.644Z,71.72
2022-11-24T05:45:45.018Z,71.85
2022-11-24T05:48:15.088Z,71.82
2022-11-24T05:50:42.661Z,71.84
2022-11-24T05:53:12.875Z,71.87
2022-11-24T05:55:41.917Z,71.73
2022-11-24T05:58:10.317Z,71.72
2022-11-24T06:00:37.868Z,71.69
2022-11-24T06:03:05.610Z,71.58
2022-11-24T06:05:33.358Z,71.88
2022-11-24T06:08:00.978Z,72.02
2022-11-24T06:10:28.586Z,71.88
2022-11-24T06:12:56.190Z,71.89
2022-11-24T06:15:23.730Z,71.87
2022-11-24T06:17:55.753Z,71.84
2022-11-24T06:20:29.723Z,71.90
2022-11-24T06:23:01.472Z,71.73
2022-11-24T06:25:29.489Z,71.75
2022-11-24T06:27:57.042Z,71.86
2022-11-24T06:30:24.773Z,71.73
2022-11-24T06:32:55.684Z,71.76
2022-11-24T06:35:25.478Z,71.72
2022-11-24T06:37:53.225Z,71.74
2022-11-24T06:40:20.928Z,71.58
2022-11-24T06:42:52.679Z,71.57
2022-11-24T06:45:20.277Z,71.67
2022-11-24T06:47:47.842Z,71.83
2022-11-24T06:50:15.792Z,71.71
2022-11-24T06:52:44.086Z,71.84
2022-11-24T06:55:11.696Z,71.89
2022-11-24T06:57:39.366Z,71.81
2022-11-24T07:00:09.289Z,71.85
2022-11-24T07:02:45.661Z,71.82
2022-11-24T07:05:15.195Z,71.87
2022-11-24T07:07:46.172Z,71.65
2022-11-24T07:10:17.825Z,71.71
2022-11-24T07:12:45.709Z,71.46
2022-11-24T07:15:14.343Z,71.37
2022-11-24T07:17:41.945Z,71.57
2022-11-24T07:20:10.233Z,71.62
2022-11-24T07:22:37.875Z,71.49
2022-11-24T07:25:07.541Z,71.59
2022-11-24T07:27:36.060Z,71.59
2022-11-24T07:30:04.416Z,71.65
2022-11-24T07:32:32.858Z,71.58
2022-11-24T07:35:00.449Z,71.67
2022-11-24T07:37:31.211Z,71.34
2022-11-24T07:39:59.343Z,71.47
2022-11-24T07:42:27.639Z,71.39
2022-11-24T07:44:55.196Z,71.29
2022-11-24T07:47:22.722Z,71.04
2022-11-24T07:49:50.420Z,70.93
2022-11-24T07:52:18.327Z,71.13
2022-11-24T07:54:48.820Z,71.49
2022-11-24T07:57:16.615Z,71.56
2022-11-24T07:59:44.237Z,71.72
2022-11-24T08:02:13.485Z,71.72
2022-11-24T08:04:41.366Z,71.71
2022-11-24T08:07:09.139Z,71.85
2022-11-24T08:09:38.865Z,71.71
2022-11-24T08:12:06.746Z,71.69
2022-11-24T08:14:34.713Z,71.63
2022-11-24T08:17:02.604Z,71.70
2022-11-24T08:19:32.230Z,71.54
2022-11-24T08:22:00.574Z,71.53
2022-11-24T08:24:28.982Z,71.57
2022-11-24T08:26:58.615Z,71.48
2022-11-24T08:29:31.019Z,71.66
2022-11-24T08:32:02.717Z,71.69
2022-11-24T08:34:32.534Z,71.46
2022-11-24T08:37:10.236Z,71.45
2022-11-24T08:39:38.444Z,71.59
2022-11-24T08:42:08.295Z,71.52
2022-11-24T08:44:38.667Z,71.57
2022-11-24T08:47:06.345Z,71.64
2022-11-24T08:49:34.016Z,71.61
2022-11-24T08:52:01.616Z,71.44
2022-11-24T08:54:29.323Z,71.53
2022-11-24T08:56:57.246Z,71.43
2022-11-24T08:59:25.020Z,71.25
2022-11-24T09:01:52.879Z,71.38
2022-11-24T09:04:20.929Z,71.37
2022-11-24T09:06:51.239Z,71.32
2022-11-24T09:09:19.142Z,71.16
2022-11-24T09:11:46.763Z,71.09
2022-11-24T09:14:14.431Z,71.14
2022-11-24T09:16:44.490Z,71.04
2022-11-24T09:19:12.508Z,71.12
2022-11-24T09:21:40.278Z,71.27
2022-11-24T09:24:08.656Z,71.28
2022-11-24T09:26:40.626Z,71.28
2022-11-24T09:29:11.082Z,71.26
2022-11-24T09:31:39.580Z,71.26
2022-11-24T09:34:11.852Z,71.03
2022-11-24T09:36:39.900Z,71.09
2022-11-24T09:39:08.083Z,70.87
2022-11-24T09:42:02.617Z,70.88
2022-11-24T09:44:54.484Z,70.95
2022-11-24T09:47:41.480Z,70.56
2022-11-24T09:50:21.783Z,70.59
2022-11-24T09:53:01.446Z,70.97
2022-11-24T09:55:48.405Z,70.84
2022-11-24T09:58:50.946Z,70.81
2022-11-24T10:01:26.324Z,70.91
2022-11-24T10:03:55.198Z,71.18
2022-11-24T10:06:26.852Z,71.28
2022-11-24T10:09:19.278Z,71.35
2022-11-24T10:11:53.231Z,71.36
2022-11-24T10:14:39.904Z,71.39
2022-11-24T10:17:13.797Z,71.43
2022-11-24T10:20:19.521Z,71.24
2022-11-24T10:23:25.856Z,71.36
2022-11-24T10:26:02.128Z,71.34
2022-11-24T10:28:47.408Z,71.25
2022-11-24T10:31:26.306Z,71.40
2022-11-24T10:34:12.488Z,71.42
2022-11-24T10:37:00.771Z,71.34
2022-11-24T10:40:10.857Z,71.13
2022-11-24T10:42:48.791Z,71.07
2022-11-24T10:45:19.557Z,71.16
2022-11-24T10:47:47.201Z,71.46
2022-11-24T10:50:25.039Z,71.34
2022-11-24T10:53:08.804Z,71.15
2022-11-24T10:55:58.621Z,71.14
2022-11-24T10:58:38.867Z,71.09
2022-11-24T11:01:12.825Z,71.12
2022-11-24T11:03:52.561Z,71.07
2022-11-24T11:06:29.321Z,71.10
2022-11-24T11:09:13.036Z,70.95
2022-11-24T11:11:41.791Z,70.91
2022-11-24T11:14:12.875Z,71.13
2022-11-24T11:16:42.243Z,71.11
2022-11-24T11:19:50.219Z,71.19
2022-11-24T11:22:35.775Z,71.00
2022-11-24T11:25:06.023Z,70.90
2022-11-24T11:27:34.867Z,71.08
2022-11-24T11:36:13.785Z,70.83
2022-11-24T11:38:43.292Z,71.04
2022-11-24T11:41:20.667Z,70.92
2022-11-24T11:43:57.142Z,70.75
2022-11-24T11:46:28.954Z,70.90
2022-11-24T11:48:56.740Z,70.75
2022-11-24T11:52:00.449Z,70.82
2022-11-24T11:54:38.471Z,71.10
2022-11-24T11:57:28.764Z,70.97
2022-11-24T12:00:20.341Z,71.06
2022-11-24T12:03:20.173Z,71.10
2022-11-24T12:05:58.591Z,71.20
2022-11-24T12:09:18.174Z,71.21
2022-11-24T12:12:08.047Z,71.07
2022-11-24T12:14:52.487Z,71.10
2022-11-24T12:17:35.922Z,70.83
2022-11-24T12:20:18.993Z,70.89
2022-11-24T12:23:02.391Z,70.85
2022-11-24T12:25:51.467Z,70.81
2022-11-24T12:28:51.018Z,70.84
2022-11-24T12:31:31.113Z,70.95
2022-11-24T12:34:30.821Z,70.94
2022-11-24T12:37:21.887Z,70.80
2022-11-24T12:40:03.845Z,70.52
2022-11-24T12:42:57.523Z,70.50
2022-11-24T12:45:36.443Z,70.79
2022-11-24T12:48:23.930Z,70.75
2022-11-24T12:50:55.325Z,70.93
2022-11-24T12:53:30.734Z,70.86
2022-11-24T12:56:06.454Z,70.76
2022-11-24T12:58:50.192Z,70.86
2022-11-24T13:01:34.472Z,70.75
2022-11-24T13:04:10.068Z,70.76
2022-11-24T13:06:50.974Z,70.60
2022-11-24T13:09:18.934Z,70.68
2022-11-24T13:11:48.970Z,70.72
2022-11-24T13:14:37.710Z,70.76
2022-11-24T13:17:38.404Z,70.56
2022-11-24T13:20:31.411Z,70.50
2022-11-24T13:23:02.692Z,70.42
2022-11-24T13:25:33.118Z,70.38
2022-11-24T13:28:02.834Z,70.45
2022-11-24T13:30:33.369Z,70.49
2022-11-24T13:33:19.553Z,70.59
2022-11-24T13:36:07.794Z,70.63
2022-11-24T13:38:52.791Z,70.72
2022-11-24T13:41:36.231Z,70.80
2022-11-24T13:44:24.280Z,70.59
2022-11-24T13:47:27.669Z,70.70
2022-11-24T13:49:55.209Z,70.59
2022-11-24T13:52:38.745Z,70.73
2022-11-24T13:55:12.535Z,70.60
2022-11-24T13:57:46.283Z,70.35
2022-11-24T14:00:58.370Z,70.26
2022-11-24T14:03:34.642Z,70.47
2022-11-24T14:06:03.621Z,70.56
2022-11-24T14:08:36.471Z,70.59
2022-11-24T14:11:14.187Z,70.65
2022-11-24T14:13:41.863Z,70.46
2022-11-24T14:16:09.406Z,70.46
2022-11-24T14:18:39.457Z,70.29
2022-11-24T14:21:23.739Z,70.41
2022-11-24T14:24:00.269Z,70.66
2022-11-24T14:26:30.750Z,70.44
2022-11-24T14:29:07.449Z,70.62
2022-11-24T14:31:35.064Z,70.57
2022-11-24T14:34:18.126Z,70.44
2022-11-24T14:36:45.659Z,70.54
2022-11-24T14:39:16.010Z,70.51
2022-11-24T14:42:03.588Z,70.66
2022-11-24T14:44:48.230Z,70.67
2022-11-24T14:47:33.804Z,70.69
2022-11-24T14:50:21.498Z,70.71
2022-11-24T14:52:56.460Z,70.76
2022-11-24T14:55:31.935Z,70.65
2022-11-24T14:57:59.977Z,70.66
2022-11-24T15:00:31.425Z,70.72
2022-11-24T15:03:02.074Z,70.67
2022-11-24T15:05:50.261Z,70.76
2022-11-24T15:08:18.365Z,70.73
2022-11-24T15:10:46.654Z,70.65
2022-11-24T15:13:18.211Z,70.61
2022-11-24T15:16:00.519Z,70.83
2022-11-24T15:18:47.867Z,70.67
2022-11-24T15:21:19.532Z,70.78
2022-11-24T15:24:15.412Z,70.69
2022-11-24T15:26:44.115Z,70.79
2022-11-24T15:29:12.597Z,70.71
2022-11-24T15:31:41.656Z,70.66
2022-11-24T15:34:13.952Z,70.72
2022-11-24T15:36:41.471Z,70.59
2022-11-24T15:39:09.066Z,70.61
2022-11-24T15:41:36.642Z,70.56
2022-11-24T15:44:04.403Z,70.53
2022-11-24T15:46:38.571Z,70.45
2022-11-24T15:49:07.171Z,70.44
2022-11-24T15:51:36.193Z,70.47
2022-11-24T15:54:03.869Z,70.61
2022-11-24T15:56:36.817Z,70.74
2022-11-24T15:59:04.564Z,70.58
2022-11-24T16:01:34.470Z,70.75
2022-11-24T16:04:03.106Z,70.69
2022-11-24T16:06:30.835Z,70.65
2022-11-24T16:08:59.054Z,70.60
2022-11-24T16:11:26.850Z,70.64
2022-11-24T16:13:54.752Z,70.58
2022-11-24T16:16:24.972Z,70.54
2022-11-24T16:18:53.064Z,70.62
2022-11-24T16:21:20.584Z,70.46
2022-11-24T16:23:48.720Z,70.48
2022-11-24T16:26:16.437Z,70.37
2022-11-24T16:28:45.630Z,70.56
2022-11-24T16:31:16.126Z,70.59
2022-11-24T16:33:47.434Z,70.68
2022-11-24T16:36:15.082Z,70.78
2022-11-24T16:38:42.639Z,70.71
2022-11-24T16:41:10.735Z,70.63
2022-11-24T16:43:38.778Z,70.61
2022-11-24T16:46:26.346Z,70.61
2022-11-24T16:48:57.308Z,70.80
2022-11-24T16:51:28.710Z,70.72
2022-11-24T16:54:01.352Z,70.76
2022-11-24T16:56:30.555Z,70.76
2022-11-24T16:58:58.103Z,70.71
2022-11-24T17:01:26.280Z,70.71
2022-11-24T17:03:53.893Z,70.84
2022-11-24T17:06:22.117Z,70.80
2022-11-24T17:08:49.780Z,70.81
2022-11-24T17:11:20.102Z,70.94
2022-11-24T17:13:49.308Z,70.93
2022-11-24T17:16:19.845Z,70.99
2022-11-24T17:18:47.998Z,70.86
2022-11-24T17:21:18.076Z,70.73
2022-11-24T17:23:46.337Z,70.67
2022-11-24T17:26:16.208Z,70.84
2022-11-24T17:28:45.112Z,70.89
2022-11-24T17:31:15.851Z,71.04
2022-11-24T17:33:43.446Z,70.81
2022-11-24T17:36:10.972Z,70.81
2022-11-24T17:38:38.907Z,70.89
2022-11-24T17:41:06.394Z,70.98
2022-11-24T17:43:34.449Z,70.76
2022-11-24T17:46:04.530Z,70.74
2022-11-24T17:48:32.794Z,70.81
2022-11-24T17:51:09.466Z,70.75
2022-11-24T17:53:37.455Z,70.74
2022-11-24T17:56:07.237Z,70.77
2022-11-24T17:58:41.273Z,70.81
2022-11-24T18:01:12.686Z,70.71
2022-11-24T18:03:41.446Z,70.83
2022-11-24T18:06:11.790Z,70.74
2022-11-24T18:08:44.905Z,70.64
2022-11-24T18:11:14.053Z,70.74
2022-11-24T18:13:58.529Z,70.78
2022-11-24T18:16:30.397Z,70.84
2022-11-24T18:19:10.166Z,71.03
2022-11-24T18:21:42.278Z,70.95
2022-11-24T18:24:11.364Z,70.93
2022-11-24T18:26:40.718Z,70.64
2022-11-24T18:29:09.830Z,70.63
2022-11-24T18:31:38.155Z,70.69
2022-11-24T18:34:06.181Z,70.84
2022-11-24T18:36:34.863Z,70.88
2022-11-24T18:39:04.926Z,70.86
2022-11-24T18:41:32.834Z,70.99
2022-11-24T18:44:08.610Z,70.80
2022-11-24T18:46:37.692Z,71.08
2022-11-24T18:49:06.899Z,70.94
2022-11-24T18:51:34.748Z,70.88
2022-11-24T18:54:04.029Z,70.81
2022-11-24T18:56:31.540Z,70.88
2022-11-24T18:58:59.028Z,70.54
2022-11-24T19:01:28.675Z,70.52
2022-11-24T19:03:58.860Z,70.75
2022-11-24T19:06:35.674Z,70.74
2022-11-24T19:09:25.319Z,70.75
2022-11-24T19:11:52.953Z,70.57
2022-11-24T19:14:20.396Z,70.89
2022-11-24T19:16:48.328Z,70.71
2022-11-24T19:19:17.093Z,70.77
2022-11-24T19:21:44.879Z,70.80
2022-11-24T19:24:13.363Z,70.71
2022-11-24T19:26:41.241Z,70.74
2022-11-24T19:29:08.790Z,70.81
2022-11-24T19:31:39.255Z,70.80
2022-11-24T19:34:07.882Z,70.85
2022-11-24T19:36:36.049Z,70.81
2022-11-24T19:39:05.167Z,70.68
2022-11-24T19:41:35.224Z,70.87
2022-11-24T19:44:02.836Z,70.76
2022-11-24T19:46:30.586Z,70.57
2022-11-24T19:49:00.771Z,70.50
2022-11-24T19:51:33.812Z,70.41
2022-11-24T19:54:02.175Z,70.51
2022-11-24T19:56:33.934Z,70.58
2022-11-24T19:59:04.019Z,70.69
2022-11-24T20:01:34.589Z,70.62
2022-11-24T20:04:07.768Z,70.60
2022-11-24T20:06:38.077Z,70.66
2022-11-24T20:09:08.918Z,70.68
2022-11-24T20:11:37.068Z,70.84
2022-11-24T20:14:06.264Z,71.00
2022-11-24T20:16:35.053Z,70.97
2022-11-24T20:19:06.364Z,70.86
2022-11-24T20:21:36.332Z,70.91
2022-11-24T20:24:12.391Z,71.02
2022-11-24T20:26:52.357Z,70.96
2022-11-24T20:29:20.301Z,71.02
2022-11-24T20:31:51.422Z,70.88
2022-11-24T20:34:20.463Z,70.90
2022-11-24T20:36:48.631Z,70.99
2022-11-24T20:39:19.640Z,70.97
2022-11-24T20:41:47.591Z,71.13
2022-11-24T20:44:17.440Z,71.25
2022-11-24T20:46:46.626Z,71.08
2022-11-24T20:49:16.707Z,70.99
2022-11-24T20:51:47.249Z,70.99
2022-11-24T20:54:17.428Z,70.93
2022-11-24T20:56:46.579Z,70.94
2022-11-24T20:59:17.648Z,70.98
2022-11-24T21:01:47.111Z,71.04
2022-11-24T21:04:21.347Z,71.02
2022-11-24T21:06:49.406Z,70.99
2022-11-24T21:09:17.346Z,71.05
2022-11-24T21:11:45.593Z,71.06
2022-11-24T21:14:13.567Z,70.99
2022-11-24T21:16:42.685Z,70.91
2022-11-24T21:19:12.713Z,71.11
2022-11-24T21:21:42.469Z,70.98
2022-11-24T21:24:14.211Z,70.94
2022-11-24T21:26:47.243Z,70.98
2022-11-24T21:29:18.809Z,71.13
2022-11-24T21:31:46.717Z,71.01
2022-11-24T21:34:16.569Z,71.03
2022-11-24T21:36:45.139Z,71.09
2022-11-24T21:39:14.647Z,71.21
2022-11-24T21:41:43.245Z,71.07
2022-11-24T21:44:12.774Z,71.00
2022-11-24T21:46:46.267Z,70.89
2022-11-24T21:49:16.986Z,70.79
2022-11-24T21:51:44.664Z,70.64
2022-11-24T21:54:12.200Z,70.73
2022-11-24T21:56:39.729Z,70.87
2022-11-24T21:59:07.338Z,71.07
2022-11-24T22:01:34.857Z,71.19
2022-11-24T22:04:02.513Z,71.16
2022-11-24T22:06:32.035Z,71.03
2022-11-24T22:08:59.555Z,71.00
2022-11-24T22:11:27.088Z,70.78
2022-11-24T22:13:54.625Z,70.82
2022-11-24T22:16:24.306Z,70.80
2022-11-24T22:18:52.248Z,70.97
2022-11-24T22:21:23.764Z,71.12
2022-11-24T22:23:54.776Z,70.98
2022-11-24T22:26:23.802Z,70.97
2022-11-24T22:28:53.186Z,71.07
2022-11-24T22:31:26.880Z,70.91
2022-11-24T22:33:55.928Z,70.88
2022-11-24T22:36:26.089Z,70.87
2022-11-24T22:38:58.241Z,71.05
2022-11-24T22:41:26.051Z,70.96
2022-11-24T22:43:53.848Z,70.63
2022-11-24T22:46:23.682Z,70.76
2022-11-24T22:48:53.789Z,71.07
2022-11-24T22:51:38.457Z,70.94
2022-11-24T22:54:06.235Z,71.12
2022-11-24T22:56:34.088Z,71.06
2022-11-24T22:59:02.845Z,71.09
2022-11-24T23:01:33.422Z,71.27
2022-11-24T23:04:01.154Z,71.24
2022-11-24T23:06:30.587Z,71.19
2022-11-24T23:09:00.199Z,71.15
2022-11-24T23:11:36.399Z,71.33
2022-11-24T23:14:13.861Z,71.17
2022-11-24T23:16:42.122Z,71.19
2022-11-24T23:19:10.234Z,71.20
2022-11-24T23:21:38.911Z,71.30
2022-11-24T23:24:07.752Z,71.37
2022-11-24T23:26:38.093Z,71.27
2022-11-24T23:29:06.768Z,71.30
2022-11-24T23:31:35.619Z,71.23
2022-11-24T23:34:04.145Z,71.19
2022-11-24T23:36:32.923Z,71.28
2022-11-24T23:39:06.438Z,71.19
2022-11-24T23:41:34.668Z,71.24
2022-11-24T23:44:02.204Z,71.35
2022-11-24T23:46:30.329Z,71.04
2022-11-24T23:48:58.356Z,71.29
2022-11-24T23:51:31.200Z,71.16
2022-11-24T23:53:59.999Z,71.06
2022-11-24T23:56:33.232Z,71.26
2022-11-24T23:59:02.597Z,71.13
